Time;durP1;ratioP1;P1;durP2;ratioP2;P2;SDS_P1;SDS_P2;PMS_P1;PMS_P2;Temp;Humidity;BMP_temperature;BMP_pressure;BME280_temperature;BME280_humidity;BME280_pressure;Samples;Min_cycle;Max_cycle;Signal;HPM_P1;HPM_P2
2021/09/03 00:01:38;;;;;;;4.55;1.63;;;14.20;64.80;;;;;;5140488;27;20023;-37
2021/09/03 00:04:04;;;;;;;8.73;2.08;;;14.20;64.90;;;;;;5140637;27;20031;-37
2021/09/03 00:06:29;;;;;;;2.58;1.65;;;14.20;64.90;;;;;;5140027;27;20406;-38
2021/09/03 00:08:55;;;;;;;8.40;2.08;;;14.10;64.80;;;;;;5140667;27;20314;-37
2021/09/03 00:11:21;;;;;;;4.78;1.88;;;14.00;64.90;;;;;;5140216;27;20050;-37
2021/09/03 00:13:47;;;;;;;4.93;2.13;;;14.00;65.10;;;;;;5140762;27;20050;-33
2021/09/03 00:16:12;;;;;;;2.67;2.17;;;13.90;65.40;;;;;;5140509;27;20034;-37
2021/09/03 00:18:38;;;;;;;2.53;2.17;;;13.80;65.50;;;;;;5140554;27;20031;-33
2021/09/03 00:21:04;;;;;;;4.60;1.92;;;13.70;65.60;;;;;;5140239;27;20037;-38
2021/09/03 00:23:29;;;;;;;3.63;2.42;;;13.70;65.80;;;;;;5140541;27;20084;-32
2021/09/03 00:25:55;;;;;;;8.88;2.55;;;13.50;66.00;;;;;;5140241;27;20063;-36
2021/09/03 00:28:21;;;;;;;4.95;2.00;;;13.50;66.10;;;;;;5140301;27;20446;-36
2021/09/03 00:30:46;;;;;;;3.85;1.92;;;13.40;66.20;;;;;;5140256;27;20109;-36
2021/09/03 00:33:12;;;;;;;4.32;2.42;;;13.40;66.40;;;;;;5140008;27;20406;-33
2021/09/03 00:35:39;;;;;;;8.18;2.40;;;13.30;67.10;;;;;;5139811;27;20100;-35
2021/09/03 00:38:05;;;;;;;2.78;2.10;;;13.20;66.60;;;;;;5140488;27;20035;-36
2021/09/03 00:40:31;;;;;;;2.80;1.95;;;13.20;66.80;;;;;;5139506;27;20027;-36
2021/09/03 00:42:56;;;;;;;3.83;2.13;;;13.20;67.00;;;;;;5140209;27;20047;-32
2021/09/03 00:45:22;;;;;;;6.40;2.35;;;13.10;67.20;;;;;;5139577;27;20031;-36
2021/09/03 00:47:47;;;;;;;7.55;2.35;;;13.10;67.30;;;;;;5139866;27;20454;-37
2021/09/03 00:50:13;;;;;;;2.75;2.08;;;13.10;67.30;;;;;;5139699;27;20026;-32
2021/09/03 00:52:39;;;;;;;4.35;2.33;;;13.00;67.40;;;;;;5139402;27;20041;-38
2021/09/03 00:55:06;;;;;;;5.13;2.17;;;13.00;67.50;;;;;;5139633;27;20031;-33
2021/09/03 00:57:31;;;;;;;3.25;1.95;;;12.90;67.60;;;;;;5139226;27;20076;-36
2021/09/03 00:59:57;;;;;;;5.70;2.22;;;12.90;67.70;;;;;;5139786;27;20028;-37
2021/09/03 01:02:23;;;;;;;4.43;2.40;;;12.90;67.80;;;;;;5139420;27;20035;-36
2021/09/03 01:04:50;;;;;;;3.17;2.17;;;12.90;67.90;;;;;;5139228;27;20027;-33
2021/09/03 01:07:16;;;;;;;2.60;1.95;;;12.90;68.00;;;;;;5139365;27;20073;-33
2021/09/03 01:09:42;;;;;;;4.20;2.70;;;12.80;68.10;;;;;;5139323;27;20027;-33
2021/09/03 01:12:08;;;;;;;3.92;2.00;;;12.80;68.10;;;;;;5139204;27;20310;-32
2021/09/03 01:14:34;;;;;;;4.28;2.17;;;12.80;68.10;;;;;;5139387;27;20030;-36
2021/09/03 01:17:00;;;;;;;5.90;2.00;;;12.80;68.20;;;;;;5139359;27;20466;-36
2021/09/03 01:19:25;;;;;;;3.45;2.15;;;12.70;68.20;;;;;;5139089;27;20326;-33
2021/09/03 01:21:52;;;;;;;2.80;1.83;;;12.80;68.20;;;;;;5139232;27;20034;-36
2021/09/03 01:24:19;;;;;;;4.70;1.92;;;12.70;68.20;;;;;;5138831;27;20166;-36
2021/09/03 01:26:45;;;;;;;5.70;2.33;;;12.70;68.40;;;;;;5138669;27;20035;-37
2021/09/03 01:29:12;;;;;;;2.35;2.17;;;12.60;68.50;;;;;;5139210;27;20027;-33
2021/09/03 01:31:38;;;;;;;6.05;2.80;;;12.60;68.60;;;;;;5139076;27;20038;-32
2021/09/03 01:34:04;;;;;;;5.80;2.22;;;12.60;68.70;;;;;;5138986;27;20322;-36
2021/09/03 01:36:30;;;;;;;2.58;1.98;;;12.60;68.80;;;;;;5138909;27;20296;-36
2021/09/03 01:38:57;;;;;;;2.58;2.05;;;12.60;68.70;;;;;;5139180;27;20299;-33
2021/09/03 01:41:23;;;;;;;5.20;2.50;;;12.60;68.70;;;;;;5138968;27;20314;-36
2021/09/03 01:43:49;;;;;;;3.72;2.22;;;12.60;68.70;;;;;;5139104;27;20111;-32
2021/09/03 01:46:15;;;;;;;5.13;2.30;;;12.50;68.70;;;;;;5138379;27;20410;-33
2021/09/03 01:48:40;;;;;;;2.97;2.20;;;12.50;68.60;;;;;;5138828;27;20030;-32
2021/09/03 01:51:06;;;;;;;5.28;2.72;;;12.50;68.70;;;;;;5138913;27;20019;-37
2021/09/03 01:53:32;;;;;;;6.50;2.35;;;12.40;68.60;;;;;;5138536;27;20343;-36
2021/09/03 01:55:58;;;;;;;4.63;2.40;;;12.40;68.60;;;;;;5138355;27;20389;-33
2021/09/03 01:58:24;;;;;;;5.60;2.35;;;12.30;68.80;;;;;;5138589;27;20113;-33
2021/09/03 02:00:50;;;;;;;4.57;2.60;;;12.30;69.00;;;;;;5138180;27;20027;-33
2021/09/03 02:03:16;;;;;;;7.40;3.50;;;12.30;69.10;;;;;;5138593;27;20164;-32
2021/09/03 02:05:41;;;;;;;3.88;2.28;;;12.20;69.20;;;;;;5137890;27;20039;-33
2021/09/03 02:08:07;;;;;;;2.72;2.40;;;12.10;69.20;;;;;;5138623;27;20031;-33
2021/09/03 02:10:33;;;;;;;4.90;2.88;;;12.10;69.40;;;;;;5137740;27;20050;-37
2021/09/03 02:12:58;;;;;;;10.75;2.70;;;12.10;69.50;;;;;;5138498;27;20068;-33
2021/09/03 02:15:24;;;;;;;4.60;2.75;;;12.00;69.60;;;;;;5137771;27;20031;-32
2021/09/03 02:17:50;;;;;;;3.10;2.45;;;12.00;69.60;;;;;;5138431;27;20038;-32
2021/09/03 02:20:16;;;;;;;3.40;2.58;;;11.90;69.70;;;;;;5137988;27;20331;-34
2021/09/03 02:22:41;;;;;;;4.10;2.50;;;11.90;69.70;;;;;;5137321;27;20026;-33
2021/09/03 02:25:07;;;;;;;3.33;2.45;;;11.90;70.00;;;;;;5137928;27;20172;-36
2021/09/03 02:27:33;;;;;;;4.75;2.72;;;11.90;70.00;;;;;;5137756;27;20031;-36
2021/09/03 02:29:59;;;;;;;4.30;2.55;;;11.80;70.20;;;;;;5137910;27;20042;-34
2021/09/03 02:32:25;;;;;;;5.45;2.67;;;11.80;70.30;;;;;;5137661;27;20027;-37
2021/09/03 02:34:51;;;;;;;5.90;2.75;;;11.80;70.40;;;;;;5137890;27;20031;-37
2021/09/03 02:37:16;;;;;;;3.97;2.33;;;11.80;70.60;;;;;;5137458;27;20025;-32
2021/09/03 02:39:42;;;;;;;4.45;2.78;;;11.70;70.70;;;;;;5137748;27;20296;-32
2021/09/03 02:42:08;;;;;;;3.67;2.72;;;11.70;70.70;;;;;;5137568;27;20039;-36
2021/09/03 02:44:34;;;;;;;5.85;2.65;;;11.70;70.90;;;;;;5137375;27;20038;-34
2021/09/03 02:47:00;;;;;;;5.60;2.45;;;11.60;70.90;;;;;;5137386;27;20023;-36
2021/09/03 02:49:25;;;;;;;4.00;2.90;;;11.60;71.00;;;;;;5137364;27;20031;-36
2021/09/03 02:51:51;;;;;;;6.45;2.85;;;11.60;71.00;;;;;;5137284;27;20399;-36
2021/09/03 02:54:16;;;;;;;4.35;2.58;;;11.60;71.10;;;;;;5137088;27;20052;-36
2021/09/03 02:56:42;;;;;;;4.47;3.17;;;11.50;71.10;;;;;;5137035;27;20318;-36
2021/09/03 02:59:08;;;;;;;5.20;2.85;;;11.50;71.20;;;;;;5137510;27;20028;-35
2021/09/03 03:01:33;;;;;;;7.55;2.80;;;11.50;71.20;;;;;;5137000;27;20018;-32
2021/09/03 03:03:59;;;;;;;3.78;2.60;;;11.50;71.30;;;;;;5136953;27;20019;-38
2021/09/03 03:06:24;;;;;;;4.90;2.70;;;11.50;71.40;;;;;;5136884;27;20019;-36
2021/09/03 03:08:50;;;;;;;4.70;2.80;;;11.50;72.00;;;;;;5137353;27;20027;-34
2021/09/03 03:11:16;;;;;;;7.53;3.28;;;11.50;71.40;;;;;;5137292;27;20024;-36
2021/09/03 03:13:47;;;;;;;7.35;2.97;;;11.50;71.40;;;;;;5137552;27;20102;-36
2021/09/03 03:16:14;;;;;;;5.97;3.08;;;11.40;71.30;;;;;;5137089;27;20047;-32
2021/09/03 03:18:40;;;;;;;4.57;2.95;;;11.50;71.40;;;;;;5137138;27;20034;-38
2021/09/03 03:21:06;;;;;;;3.67;2.50;;;11.40;71.30;;;;;;5136904;27;20092;-46
2021/09/03 03:23:31;;;;;;;7.47;3.05;;;11.40;71.40;;;;;;5137279;27;20359;-36
2021/09/03 03:25:57;;;;;;;4.85;2.78;;;11.40;71.50;;;;;;5137018;27;20027;-46
2021/09/03 03:28:23;;;;;;;8.65;2.92;;;11.30;71.50;;;;;;5136978;27;20034;-36
2021/09/03 03:30:48;;;;;;;4.15;2.80;;;11.40;71.60;;;;;;5136388;27;20042;-38
2021/09/03 03:33:14;;;;;;;8.40;3.50;;;11.30;71.60;;;;;;5137203;27;20019;-44
2021/09/03 03:35:39;;;;;;;7.35;2.97;;;11.40;71.60;;;;;;5136891;27;20404;-44
2021/09/03 03:38:06;;;;;;;6.47;2.88;;;11.30;71.60;;;;;;5137189;27;20027;-34
2021/09/03 03:40:32;;;;;;;6.25;3.20;;;11.30;71.60;;;;;;5136704;28;20034;-45
2021/09/03 03:42:58;;;;;;;6.15;3.00;;;11.30;71.80;;;;;;5136968;28;20061;-45
2021/09/03 03:45:24;;;;;;;4.68;3.22;;;11.40;71.80;;;;;;5136163;28;20065;-46
2021/09/03 03:47:50;;;;;;;5.65;3.53;;;11.30;71.80;;;;;;5136790;28;20462;-36
2021/09/03 03:50:16;;;;;;;8.43;4.28;;;11.40;71.80;;;;;;5136661;28;20110;-36
2021/09/03 03:52:42;;;;;;;7.10;3.08;;;11.40;71.80;;;;;;5136384;28;20023;-38
2021/09/03 03:55:08;;;;;;;5.65;3.05;;;11.40;71.80;;;;;;5136630;28;20031;-45
2021/09/03 03:57:34;;;;;;;4.30;2.83;;;11.40;71.80;;;;;;5136563;28;20204;-35
2021/09/03 03:59:59;;;;;;;4.25;2.85;;;11.40;71.80;;;;;;5136454;28;20028;-45
2021/09/03 04:02:25;;;;;;;3.38;2.38;;;11.50;71.70;;;;;;5136458;28;20038;-35
2021/09/03 04:04:51;;;;;;;3.67;2.55;;;11.40;71.60;;;;;;5136353;28;20114;-44
2021/09/03 04:07:16;;;;;;;5.45;2.90;;;11.50;71.70;;;;;;5136221;28;20100;-35
2021/09/03 04:09:42;;;;;;;7.32;2.75;;;11.50;71.60;;;;;;5136452;28;20268;-37
2021/09/03 04:12:09;;;;;;;3.80;2.92;;;11.60;71.60;;;;;;5136453;28;20020;-37
2021/09/03 04:14:35;;;;;;;5.15;3.20;;;11.60;71.50;;;;;;5136287;28;20318;-36
2021/09/03 04:17:01;;;;;;;10.43;4.13;;;11.60;71.30;;;;;;5136486;28;20031;-45
2021/09/03 04:19:26;;;;;;;4.97;2.38;;;11.60;71.30;;;;;;5136301;28;20033;-44
2021/09/03 04:21:52;;;;;;;9.50;2.80;;;11.70;71.20;;;;;;5136140;28;20067;-36
2021/09/03 04:24:18;;;;;;;3.97;2.70;;;11.70;71.10;;;;;;5135817;28;20070;-46
2021/09/03 04:26:43;;;;;;;6.25;2.47;;;11.80;71.30;;;;;;5135552;28;20037;-40
2021/09/03 04:29:09;;;;;;;3.78;2.58;;;11.80;71.00;;;;;;5135983;28;20084;-45
2021/09/03 04:31:35;;;;;;;6.03;2.70;;;11.90;71.00;;;;;;5136182;28;20152;-37
2021/09/03 04:34:01;;;;;;;4.65;2.33;;;11.90;70.90;;;;;;5136029;28;20176;-36
2021/09/03 04:36:26;;;;;;;4.00;2.80;;;12.00;70.80;;;;;;5135936;28;20027;-33
2021/09/03 04:38:52;;;;;;;4.07;2.63;;;12.10;70.70;;;;;;5136541;28;20035;-33
2021/09/03 04:41:18;;;;;;;6.85;4.40;;;12.10;70.50;;;;;;5135889;28;20027;-34
2021/09/03 04:43:43;;;;;;;4.47;3.25;;;12.20;70.30;;;;;;5135941;28;20042;-33
2021/09/03 04:46:09;;;;;;;3.70;2.92;;;12.20;70.10;;;;;;5138062;27;20106;-33
2021/09/03 04:48:35;;;;;;;4.70;2.80;;;12.20;69.90;;;;;;5139674;27;20138;-33
2021/09/03 04:51:01;;;;;;;5.95;2.75;;;12.30;70.00;;;;;;5139365;27;20042;-33
2021/09/03 04:53:26;;;;;;;3.45;2.30;;;12.30;69.90;;;;;;5139399;27;20043;-37
2021/09/03 04:55:53;;;;;;;3.53;2.88;;;12.30;69.90;;;;;;5138937;27;20402;-38
2021/09/03 04:58:19;;;;;;;7.20;4.50;;;12.40;70.00;;;;;;5121148;27;20416;-37
2021/09/03 05:00:44;;;;;;;6.82;3.28;;;12.50;69.90;;;;;;5139027;27;20031;-36
2021/09/03 05:03:10;;;;;;;5.00;3.15;;;12.60;69.80;;;;;;5139496;27;20331;-37
2021/09/03 05:05:36;;;;;;;7.85;2.67;;;12.60;69.50;;;;;;5138904;27;20028;-33
2021/09/03 05:08:01;;;;;;;9.70;3.17;;;12.70;69.20;;;;;;5139401;27;20109;-32
2021/09/03 05:10:27;;;;;;;5.28;2.50;;;12.70;69.10;;;;;;5138802;27;20103;-37
2021/09/03 05:12:53;;;;;;;4.90;2.45;;;12.80;69.00;;;;;;5139321;27;20020;-33
2021/09/03 05:15:28;;;;;;;10.60;4.13;;;12.90;69.00;;;;;;5139057;27;20038;-36
2021/09/03 05:17:53;;;;;;;2.80;2.28;;;13.00;69.10;;;;;;5139194;27;20023;-37
2021/09/03 05:20:19;;;;;;;5.53;2.88;;;13.10;68.70;;;;;;5138813;27;20330;-34
2021/09/03 05:22:45;;;;;;;4.82;2.40;;;13.20;68.50;;;;;;5139118;27;20031;-33
2021/09/03 05:25:13;;;;;;;7.22;2.97;;;13.20;68.20;;;;;;5138873;27;20046;-37
2021/09/03 05:27:40;;;;;;;12.77;7.93;;;13.30;67.90;;;;;;5138692;27;20283;-37
2021/09/03 05:30:07;;;;;;;5.47;2.70;;;13.40;67.80;;;;;;5138602;27;20032;-37
2021/09/03 05:32:33;;;;;;;5.72;3.13;;;13.40;67.80;;;;;;5120253;27;20051;-37
2021/09/03 05:34:59;;;;;;;4.05;2.50;;;13.50;67.90;;;;;;5138253;27;20111;-33
2021/09/03 05:37:24;;;;;;;6.95;3.17;;;13.60;67.60;;;;;;5138307;27;20019;-33
2021/09/03 05:39:50;;;;;;;5.00;2.47;;;13.60;67.50;;;;;;5138371;27;20031;-38
2021/09/03 05:42:15;;;;;;;5.25;2.80;;;13.70;67.30;;;;;;5138157;27;20045;-33
2021/09/03 05:44:42;;;;;;;3.17;2.13;;;13.70;67.30;;;;;;5119817;27;20042;-37
2021/09/03 05:47:07;;;;;;;4.68;2.42;;;13.80;67.30;;;;;;5138272;27;20055;-37
2021/09/03 05:49:33;;;;;;;5.32;2.70;;;13.90;67.10;;;;;;5138252;27;20427;-38
2021/09/03 05:51:59;;;;;;;3.05;2.50;;;14.00;67.20;;;;;;5138233;27;20043;-33
2021/09/03 05:54:24;;;;;;;4.43;2.60;;;14.10;66.90;;;;;;5137979;27;20111;-32
2021/09/03 05:56:50;;;;;;;5.95;2.85;;;14.10;66.50;;;;;;5136766;27;20054;-32
2021/09/03 05:59:16;;;;;;;7.55;3.90;;;14.20;66.90;;;;;;5137940;27;20039;-37
2021/09/03 06:01:41;;;;;;;5.78;2.67;;;14.30;66.00;;;;;;5138372;27;20114;-33
2021/09/03 06:04:07;;;;;;;8.13;2.75;;;14.40;65.60;;;;;;5137826;27;20083;-39
2021/09/03 06:06:32;;;;;;;4.63;3.20;;;14.40;65.40;;;;;;5137416;27;20034;-34
2021/09/03 06:08:58;;;;;;;4.13;2.60;;;14.50;65.50;;;;;;5137594;27;20034;-38
2021/09/03 06:11:26;;;;;;;9.23;2.35;;;14.60;65.60;;;;;;5136859;27;20022;-38
2021/09/03 06:13:53;;;;;;;3.53;2.15;;;14.60;64.80;;;;;;5137673;27;20027;-34
2021/09/03 06:16:20;;;;;;;4.97;2.13;;;14.70;64.50;;;;;;5137623;27;20028;-34
2021/09/03 06:18:45;;;;;;;7.47;2.60;;;14.70;64.70;;;;;;5137910;27;20035;-34
2021/09/03 06:21:11;;;;;;;7.65;3.70;;;14.80;64.40;;;;;;5137513;27;20345;-38
2021/09/03 06:23:37;;;;;;;2.95;2.17;;;14.90;64.30;;;;;;5138019;27;20355;-33
2021/09/03 06:26:02;;;;;;;12.48;2.30;;;15.00;64.20;;;;;;5137271;27;20027;-32
2021/09/03 06:28:28;;;;;;;5.30;2.00;;;15.10;63.50;;;;;;5137540;27;20106;-36
2021/09/03 06:30:54;;;;;;;12.45;2.25;;;15.10;62.80;;;;;;5137578;27;20027;-32
2021/09/03 06:33:19;;;;;;;8.38;2.17;;;15.20;62.50;;;;;;5137133;27;20029;-33
2021/09/03 06:35:45;;;;;;;5.00;1.92;;;15.30;62.40;;;;;;5137506;27;20043;-36
2021/09/03 06:38:11;;;;;;;2.28;1.60;;;15.40;62.00;;;;;;5137524;27;20418;-36
2021/09/03 06:40:36;;;;;;;6.60;3.33;;;15.50;62.10;;;;;;5118686;27;20031;-33
2021/09/03 06:43:02;;;;;;;7.88;2.30;;;15.50;61.50;;;;;;5137588;27;20035;-33
2021/09/03 06:45:27;;;;;;;3.70;2.08;;;15.60;61.20;;;;;;5137011;27;20031;-32
2021/09/03 06:47:53;;;;;;;4.93;2.17;;;15.70;61.20;;;;;;5137642;27;20402;-36
2021/09/03 06:50:19;;;;;;;6.75;2.95;;;15.70;60.80;;;;;;5137142;27;20032;-33
2021/09/03 06:52:45;;;;;;;9.95;2.15;;;15.80;61.20;;;;;;5136966;27;20540;-32
2021/09/03 06:55:13;;;;;;;5.45;2.20;;;15.90;60.90;;;;;;5137073;27;20035;-36
2021/09/03 06:57:39;;;;;;;7.57;2.20;;;15.90;61.00;;;;;;5137047;27;20035;-31
2021/09/03 07:00:06;;;;;;;5.88;1.95;;;16.00;60.10;;;;;;5137259;27;20031;-32
2021/09/03 07:02:32;;;;;;;9.73;1.90;;;16.00;60.00;;;;;;5137003;27;20334;-33
2021/09/03 07:04:57;;;;;;;6.55;2.30;;;16.10;59.80;;;;;;5136973;27;20031;-33
2021/09/03 07:07:23;;;;;;;4.68;1.70;;;16.20;59.70;;;;;;5136483;27;20430;-33
2021/09/03 07:09:49;;;;;;;5.65;2.75;;;16.20;59.70;;;;;;5137174;27;20287;-37
2021/09/03 07:12:15;;;;;;;2.88;1.83;;;16.30;59.10;;;;;;5136733;27;20030;-33
2021/09/03 07:14:40;;;;;;;2.97;1.95;;;16.30;58.60;;;;;;5136789;27;20088;-33
2021/09/03 07:17:06;;;;;;;1.42;1.30;;;16.40;58.20;;;;;;5136898;27;20292;-33
2021/09/03 07:19:35;;;;;;;3.70;1.70;;;16.50;56.90;;;;;;5136900;27;20051;-35
2021/09/03 07:22:03;;;;;;;2.20;1.73;;;16.50;56.70;;;;;;5136747;27;20472;-46
2021/09/03 07:24:29;;;;;;;1.70;1.52;;;16.60;57.20;;;;;;5136498;27;20031;-32
2021/09/03 07:26:55;;;;;;;4.65;2.00;;;16.60;57.20;;;;;;5136678;27;20027;-32
2021/09/03 07:29:21;;;;;;;3.25;1.52;;;16.70;56.50;;;;;;5136350;27;20131;-35
2021/09/03 07:31:46;;;;;;;7.55;1.80;;;16.70;56.20;;;;;;5136782;27;20027;-35
2021/09/03 07:34:12;;;;;;;1.98;1.73;;;16.80;55.90;;;;;;5136697;27;20360;-37
2021/09/03 07:36:38;;;;;;;4.40;2.90;;;16.80;55.60;;;;;;5136132;27;20019;-36
2021/09/03 07:39:04;;;;;;;2.20;1.38;;;16.90;55.70;;;;;;5136842;27;20084;-35
2021/09/03 07:41:30;;;;;;;4.15;1.42;;;16.90;55.10;;;;;;5136208;28;20322;-37
2021/09/03 07:43:55;;;;;;;5.25;1.90;;;17.00;54.50;;;;;;5136749;28;20123;-38
2021/09/03 07:46:21;;;;;;;3.72;1.90;;;17.00;55.00;;;;;;5136041;28;20035;-36
2021/09/03 07:48:47;;;;;;;3.28;2.05;;;17.10;55.10;;;;;;5136319;28;20342;-33
2021/09/03 07:51:13;;;;;;;3.72;1.55;;;17.10;54.50;;;;;;5136371;28;20429;-33
2021/09/03 07:53:39;;;;;;;3.13;1.38;;;17.20;54.30;;;;;;5136161;28;20039;-38
2021/09/03 07:56:05;;;;;;;3.92;1.30;;;17.30;54.40;;;;;;5136172;28;20023;-38
2021/09/03 07:58:31;;;;;;;5.78;1.70;;;17.30;54.20;;;;;;5136670;28;20035;-37
2021/09/03 08:00:57;;;;;;;2.67;1.48;;;17.40;53.30;;;;;;5136371;28;20307;-39
2021/09/03 08:03:22;;;;;;;6.88;1.13;;;17.40;52.80;;;;;;5136501;28;20114;-36
2021/09/03 08:05:48;;;;;;;3.28;1.30;;;17.40;52.00;;;;;;5136066;28;20188;-35
2021/09/03 08:08:14;;;;;;;1.63;1.15;;;17.50;52.30;;;;;;5136579;28;20023;-36
2021/09/03 08:10:40;;;;;;;5.40;1.85;;;17.50;52.60;;;;;;5135942;28;20092;-46
2021/09/03 08:13:09;;;;;;;2.80;1.48;;;17.60;52.80;;;;;;5136568;28;20023;-45
2021/09/03 08:15:35;;;;;;;5.90;1.83;;;17.60;51.90;;;;;;5136211;28;20038;-45
2021/09/03 08:18:02;;;;;;;4.85;1.20;;;17.70;52.00;;;;;;5135922;28;20427;-35
2021/09/03 08:20:28;;;;;;;1.85;1.30;;;17.70;52.00;;;;;;5137378;27;20036;-35
2021/09/03 08:22:54;;;;;;;1.55;1.02;;;17.80;51.40;;;;;;5140389;27;20034;-45
2021/09/03 08:25:20;;;;;;;4.25;1.50;;;17.80;50.70;;;;;;5139889;27;20063;-45
2021/09/03 08:27:48;;;;;;;1.10;1.00;;;17.80;50.70;;;;;;5140091;27;20399;-35
2021/09/03 08:30:14;;;;;;;2.85;1.10;;;17.80;50.70;;;;;;5139871;27;20035;-45
2021/09/03 08:32:40;;;;;;;2.33;1.45;;;17.90;50.90;;;;;;5139965;27;20030;-45
2021/09/03 08:35:06;;;;;;;1.65;1.00;;;18.00;51.20;;;;;;5140186;27;20032;-35
2021/09/03 08:37:31;;;;;;;3.47;1.30;;;18.00;50.90;;;;;;5139534;27;20027;-36
2021/09/03 08:39:59;;;;;;;3.15;1.50;;;18.10;50.20;;;;;;5139527;27;20039;-39
2021/09/03 08:42:25;;;;;;;4.38;1.60;;;18.10;49.90;;;;;;5139584;27;20023;-37
2021/09/03 08:44:51;;;;;;;1.33;1.23;;;18.10;50.70;;;;;;5139468;27;20061;-36
2021/09/03 08:47:20;;;;;;;3.80;2.40;;;18.20;50.60;;;;;;5139372;27;20251;-36
2021/09/03 08:49:46;;;;;;;3.40;1.33;;;18.20;50.30;;;;;;5139384;27;20028;-37
2021/09/03 08:52:11;;;;;;;1.23;1.10;;;18.30;50.20;;;;;;5139384;27;20019;-36
2021/09/03 08:54:37;;;;;;;4.22;1.58;;;18.30;50.10;;;;;;5139092;27;20442;-37
2021/09/03 08:57:04;;;;;;;3.55;1.38;;;18.40;49.70;;;;;;5139081;27;20023;-36
2021/09/03 08:59:30;;;;;;;3.88;2.05;;;18.50;49.20;;;;;;5139105;27;20023;-35
2021/09/03 09:02:13;;;;;;;1.83;1.08;;;18.40;49.40;;;;;;5139101;27;20369;-36
2021/09/03 09:04:41;;;;;;;2.90;1.48;;;18.50;48.90;;;;;;5120789;27;20023;-45
2021/09/03 09:07:07;;;;;;;1.27;0.90;;;18.50;49.70;;;;;;5138827;27;20080;-45
2021/09/03 09:09:44;;;;;;;5.80;2.08;;;18.60;48.90;;;;;;5139020;27;20028;-35
2021/09/03 09:12:12;;;;;;;6.75;2.40;;;18.50;49.00;;;;;;5139107;27;20019;-36
2021/09/03 09:15:01;;;;;;;2.65;1.35;;;18.60;49.20;;;;;;5138866;27;20027;-36
2021/09/03 09:17:37;;;;;;;3.85;1.30;;;18.60;49.70;;;;;;5139074;27;20328;-45
2021/09/03 09:20:05;;;;;;;3.42;1.67;;;18.70;48.80;;;;;;5138565;27;20023;-45
2021/09/03 09:22:52;;;;;;;1.75;1.23;;;18.70;48.60;;;;;;5138852;27;20082;-36
2021/09/03 09:25:29;;;;;;;1.50;0.93;;;18.80;48.50;;;;;;5138938;27;20051;-44
2021/09/03 09:28:12;;;;;;;2.38;1.10;;;18.80;48.70;;;;;;5138919;27;20031;-37
2021/09/03 09:30:41;;;;;;;2.90;1.67;;;18.80;48.90;;;;;;5138410;27;20326;-38
2021/09/03 09:33:12;;;;;;;1.70;1.00;;;18.90;48.60;;;;;;5139133;27;20050;-35
2021/09/03 09:35:49;;;;;;;6.38;1.10;;;19.00;47.80;;;;;;5138440;27;20027;-45
2021/09/03 09:38:19;;;;;;;2.08;1.20;;;19.00;47.20;;;;;;5139041;27;20426;-44
2021/09/03 09:40:51;;;;;;;2.60;1.33;;;19.10;47.80;;;;;;5138767;27;20376;-45
2021/09/03 09:43:36;;;;;;;4.50;1.15;;;19.10;47.50;;;;;;5138715;27;20043;-43
2021/09/03 09:46:10;;;;;;;3.75;1.48;;;19.20;46.20;;;;;;5138501;27;20031;-43
2021/09/03 09:48:51;;;;;;;1.70;1.00;;;19.30;47.30;;;;;;5138330;27;20115;-44
2021/09/03 09:51:21;;;;;;;4.05;1.00;;;19.40;46.20;;;;;;5138231;27;20064;-34
2021/09/03 09:54:11;;;;;;;2.40;1.55;;;19.50;46.30;;;;;;5138274;27;20075;-34
2021/09/03 09:56:52;;;;;;;0.95;0.82;;;19.60;45.70;;;;;;5138123;27;20432;-45
2021/09/03 09:59:19;;;;;;;3.15;1.88;;;19.60;46.00;;;;;;5138310;27;20080;-36
2021/09/03 10:01:47;;;;;;;1.80;1.45;;;19.70;46.40;;;;;;5137819;27;20315;-37
2021/09/03 10:04:16;;;;;;;1.58;0.85;;;19.80;47.00;;;;;;5137957;27;20026;-45
2021/09/03 10:06:43;;;;;;;2.63;1.70;;;19.90;45.90;;;;;;5137629;27;20098;-45
2021/09/03 10:09:14;;;;;;;2.90;2.00;;;19.90;46.40;;;;;;5137844;27;20331;-34
2021/09/03 10:11:42;;;;;;;1.10;0.93;;;20.00;46.20;;;;;;5137606;27;20084;-35
2021/09/03 10:14:10;;;;;;;2.58;1.27;;;20.10;45.80;;;;;;5137693;27;20384;-35
2021/09/03 10:16:36;;;;;;;7.80;1.35;;;20.10;44.60;;;;;;5137573;27;20030;-45
2021/09/03 10:19:05;;;;;;;5.35;1.95;;;20.20;44.30;;;;;;5137399;27;20381;-36
2021/09/03 10:21:36;;;;;;;3.55;2.22;;;20.20;45.00;;;;;;5137623;27;20027;-35
2021/09/03 10:24:09;;;;;;;2.85;1.98;;;20.20;44.80;;;;;;5137738;27;20292;-44
2021/09/03 10:26:44;;;;;;;4.80;1.90;;;20.30;45.20;;;;;;5137035;27;20031;-34
2021/09/03 10:29:13;;;;;;;5.47;1.30;;;20.30;44.60;;;;;;5137601;27;20039;-45
2021/09/03 10:32:07;;;;;;;1.75;1.00;;;20.30;44.30;;;;;;5137354;27;20348;-36
2021/09/03 10:34:50;;;;;;;1.73;1.48;;;20.40;43.90;;;;;;5137100;27;20319;-36
2021/09/03 10:37:16;;;;;;;1.90;1.17;;;20.40;44.40;;;;;;5137206;27;20098;-35
2021/09/03 10:39:45;;;;;;;1.42;0.88;;;20.40;44.60;;;;;;5137185;27;20486;-37
2021/09/03 10:42:31;;;;;;;3.45;1.33;;;20.50;44.00;;;;;;5137094;27;20085;-45
2021/09/03 10:45:08;;;;;;;2.45;1.38;;;20.50;44.50;;;;;;5137009;27;20119;-45
2021/09/03 10:47:35;;;;;;;1.63;1.30;;;20.60;44.90;;;;;;5137070;27;20429;-45
2021/09/03 10:50:12;;;;;;;1.25;1.05;;;20.70;43.80;;;;;;5137086;27;20059;-36
2021/09/03 10:52:38;;;;;;;1.90;1.23;;;20.70;43.50;;;;;;5136932;27;20027;-45
2021/09/03 10:55:08;;;;;;;1.63;1.33;;;20.80;43.40;;;;;;5136937;27;20407;-45
2021/09/03 10:57:57;;;;;;;3.53;1.38;;;20.90;43.20;;;;;;5137060;27;20058;-46
2021/09/03 11:00:23;;;;;;;4.95;1.65;;;21.00;43.10;;;;;;5137015;27;20039;-46
2021/09/03 11:02:49;;;;;;;5.40;1.67;;;20.90;42.80;;;;;;5137181;27;20441;-35
2021/09/03 11:05:15;;;;;;;3.95;1.15;;;21.00;43.00;;;;;;5137048;27;20031;-38
2021/09/03 11:07:42;;;;;;;2.85;1.15;;;21.00;42.50;;;;;;5136999;27;20416;-40
2021/09/03 11:10:28;;;;;;;1.23;1.00;;;21.00;42.10;;;;;;5136868;27;20024;-35
2021/09/03 11:12:54;;;;;;;2.25;1.17;;;21.20;42.00;;;;;;5136432;27;20031;-34
2021/09/03 11:15:20;;;;;;;1.63;0.90;;;21.20;42.20;;;;;;5136616;27;20110;-38
2021/09/03 11:17:47;;;;;;;2.80;1.30;;;21.30;41.70;;;;;;5137185;27;20036;-34
2021/09/03 11:20:14;;;;;;;5.40;1.90;;;21.30;42.00;;;;;;5136581;27;20042;-38
2021/09/03 11:22:40;;;;;;;5.25;1.17;;;21.30;41.50;;;;;;5136670;27;20463;-34
2021/09/03 11:25:07;;;;;;;4.05;0.90;;;21.30;40.80;;;;;;5136867;27;20122;-34
2021/09/03 11:27:35;;;;;;;3.75;1.60;;;21.20;41.00;;;;;;5136337;27;20474;-39
2021/09/03 11:30:07;;;;;;;2.78;1.38;;;21.20;41.50;;;;;;5136489;27;20414;-35
2021/09/03 11:32:36;;;;;;;5.80;2.80;;;21.20;41.40;;;;;;5136311;27;20019;-41
2021/09/03 11:35:14;;;;;;;2.95;1.52;;;21.20;41.50;;;;;;5136375;27;20058;-35
2021/09/03 11:37:44;;;;;;;2.20;1.00;;;21.20;41.40;;;;;;5136372;27;20048;-40
2021/09/03 11:40:10;;;;;;;3.75;1.65;;;21.30;42.00;;;;;;5136212;27;20027;-39
2021/09/03 11:42:42;;;;;;;2.33;1.33;;;21.40;41.80;;;;;;5135843;28;20034;-34
2021/09/03 11:45:17;;;;;;;3.95;1.40;;;21.50;41.30;;;;;;5136284;28;20446;-35
2021/09/03 11:48:07;;;;;;;2.00;1.20;;;21.50;41.30;;;;;;5135793;28;20035;-34
2021/09/03 11:50:42;;;;;;;1.55;1.20;;;21.70;41.00;;;;;;5125496;27;20036;-35
2021/09/03 11:53:17;;;;;;;2.95;1.20;;;21.90;41.20;;;;;;5136101;28;20067;-33
2021/09/03 11:55:44;;;;;;;1.08;0.95;;;22.10;40.60;;;;;;5138423;27;20062;-38
2021/09/03 11:58:11;;;;;;;3.42;1.55;;;22.30;40.00;;;;;;5140732;27;20437;-40
2021/09/03 12:00:45;;;;;;;4.00;1.52;;;22.50;40.50;;;;;;5139926;27;20027;-34
2021/09/03 12:03:32;;;;;;;6.85;1.90;;;22.70;40.10;;;;;;5140374;27;20318;-38
2021/09/03 12:06:00;;;;;;;2.83;1.10;;;22.90;39.80;;;;;;5139041;27;20442;-39
2021/09/03 12:08:31;;;;;;;8.25;1.40;;;23.10;38.90;;;;;;5140276;27;20031;-39
2021/09/03 12:10:57;;;;;;;;;;;23.20;38.90;;;;;;5140766;27;20296;-36
2021/09/03 12:13:33;;;;;;;1.83;1.00;;;23.30;39.40;;;;;;5139851;27;20332;-36
2021/09/03 12:16:16;;;;;;;3.70;1.30;;;23.40;38.50;;;;;;5140307;27;20324;-39
2021/09/03 12:18:45;;;;;;;3.05;1.38;;;23.40;39.10;;;;;;5140000;27;20046;-40
2021/09/03 12:21:18;;;;;;;2.00;1.08;;;23.30;38.70;;;;;;5140093;27;20327;-38
2021/09/03 12:23:56;;;;;;;2.75;1.45;;;23.20;38.70;;;;;;5140204;27;20027;-39
2021/09/03 12:26:34;;;;;;;1.65;1.30;;;23.20;39.20;;;;;;5139492;27;20024;-39
2021/09/03 12:29:00;;;;;;;1.65;1.10;;;23.00;39.70;;;;;;5140073;27;20031;-39
2021/09/03 12:31:31;;;;;;;4.25;1.25;;;22.90;39.20;;;;;;5139476;27;20023;-34
2021/09/03 12:33:58;;;;;;;2.38;1.13;;;22.80;39.80;;;;;;5139818;27;20114;-34
2021/09/03 12:36:30;;;;;;;2.85;1.33;;;22.80;39.30;;;;;;5139585;27;20026;-34
2021/09/03 12:39:20;;;;;;;3.10;1.92;;;22.70;39.70;;;;;;5139839;27;20031;-38
2021/09/03 12:41:46;;;;;;;2.97;1.65;;;22.70;39.60;;;;;;5128586;27;20106;-33
2021/09/03 12:44:26;;;;;;;7.40;2.15;;;22.60;39.30;;;;;;5139440;27;20118;-38
2021/09/03 12:46:58;;;;;;;2.33;0.82;;;22.60;39.10;;;;;;5139550;27;20287;-39
2021/09/03 12:49:29;;;;;;;4.47;1.27;;;22.60;39.00;;;;;;5139209;27;20071;-38
2021/09/03 12:52:01;;;;;;;3.53;1.13;;;22.50;39.40;;;;;;5139509;27;20094;-33